Time;durP1;ratioP1;P1;durP2;ratioP2;P2;SDS_P1;SDS_P2;PMS_P1;PMS_P2;Temp;Humidity;BMP_temperature;BMP_pressure;BME280_temperature;BME280_humidity;BME280_pressure;Samples;Min_cycle;Max_cycle;Signal;HPM_P1;HPM_P2
2022/03/10 00:56:33;;;;;;;;;;;128.50;2252.80;;;;;;6220666;22;19934;31
2022/03/10 00:58:59;;;;;;;;;;;128.50;2252.80;;;;;;6193569;23;19919;-94
2022/03/10 01:01:25;;;;;;;;;;;128.40;2252.80;;;;;;6217320;23;20376;-93
2022/03/10 01:03:50;;;;;;;;;;;128.40;2252.80;;;;;;6216575;23;19986;-93
2022/03/10 01:06:16;;;;;;;;;;;128.40;2252.80;;;;;;6217287;23;19904;-93
2022/03/10 01:08:42;;;;;;;;;;;128.40;2252.80;;;;;;6217251;23;19947;-94
2022/03/10 01:11:08;;;;;;;;;;;128.40;2252.80;;;;;;6217147;23;19908;-93
2022/03/10 01:13:33;;;;;;;;;;;128.40;2252.80;;;;;;6217221;23;19906;-94
2022/03/10 01:15:59;;;;;;;;;;;128.40;2252.80;;;;;;6217106;23;19978;-93
2022/03/10 01:18:25;;;;;;;;;;;128.50;2252.80;;;;;;6216972;23;19927;-93
2022/03/10 01:20:50;;;;;;;;;;;128.50;2252.80;;;;;;6216900;23;19971;-93
2022/03/10 01:23:16;;;;;;;;;;;128.40;2252.80;;;;;;6216855;23;19907;-94
2022/03/10 01:25:42;;;;;;;;;;;128.40;2252.80;;;;;;6216938;23;19900;-93
2022/03/10 01:28:07;;;;;;;;;;;128.30;2252.80;;;;;;6216946;23;19934;-94
2022/03/10 01:30:33;;;;;;;;;;;128.50;2252.80;;;;;;6216828;23;19987;-93
2022/03/10 01:32:59;;;;;;;;;;;128.50;2252.80;;;;;;6216727;23;19907;-93
2022/03/10 01:35:25;;;;;;;;;;;128.50;2252.80;;;;;;6216715;23;19899;-93
2022/03/10 01:37:50;;;;;;;;;;;128.50;2252.80;;;;;;6216750;23;19934;-94
2022/03/10 01:40:17;;;;;;;;;;;128.50;2252.80;;;;;;6216794;23;19924;-94
2022/03/10 01:42:43;;;;;;;;;;;;;;;;;;6216706;23;19957;-94
2022/03/10 01:45:10;;;;;;;;;;;;;;;;;;6216646;23;19900;-95
2022/03/10 01:47:36;;;;;;;;;;;;;;;;;;6216660;23;20328;-95
2022/03/10 01:50:02;;;;;;;;;;;;;;;;;;6216678;23;19900;-96
2022/03/10 01:52:28;;;;;;;;;;;;;;;;;;6216492;23;19915;-96
2022/03/10 01:54:54;;;;;;;;;;;;;;;;;;6216687;23;19904;-96
2022/03/10 01:57:20;;;;;;;;;;;;;;;;;;6216376;23;20424;-95
2022/03/10 01:59:46;;;;;;;;;;;;;;;;;;6216538;23;19939;-95
2022/03/10 02:02:12;;;;;;;;;;;;;;;;;;6216744;23;19899;-96
2022/03/10 02:04:38;;;;;;;;;;;;;;;;;;6216790;23;19906;-96
2022/03/10 02:07:06;;;;;;;;;;;128.50;2252.80;;;;;;6216818;23;19983;-95
2022/03/10 02:12:16;;;;;;;;;;;128.20;2252.80;;;;;;6217793;23;20332;-93
2022/03/10 02:17:26;;;;;;;;;;;128.20;2252.80;;;;;;6217875;23;19907;-94
2022/03/10 02:19:54;;;;;;;;;;;128.20;2252.80;;;;;;6216320;23;19899;-94
2022/03/10 02:22:20;;;;;;;;;;;128.20;2252.80;;;;;;6216196;23;19955;-93
2022/03/10 02:24:46;;;;;;;;;;;128.20;2252.80;;;;;;6216414;23;19910;-94
2022/03/10 02:27:20;;;;;;;;;;;128.20;2252.80;;;;;;6216406;23;19935;-94
2022/03/10 02:29:53;;;;;;;;;;;128.20;2252.80;;;;;;6191038;23;19900;-93
2022/03/10 02:32:20;;;;;;;;;;;128.20;2252.80;;;;;;6216172;23;19912;-94
2022/03/10 02:34:47;;;;;;;;;;;128.20;2252.80;;;;;;6216245;23;19906;-95
2022/03/10 02:37:13;;;;;;;;;;;128.20;2252.80;;;;;;6216099;23;19900;-94
2022/03/10 02:39:39;;;;;;;;;;;128.20;2252.80;;;;;;6216163;23;20229;-94
2022/03/10 02:42:06;;;;;;;;;;;128.20;2252.80;;;;;;6216136;23;19900;-95
2022/03/10 02:44:32;;;;;;;;;;;128.30;2252.80;;;;;;6216008;23;19900;-95
2022/03/10 02:46:58;;;;;;;;;;;128.20;2252.80;;;;;;6215939;23;19907;-94
2022/03/10 02:49:25;;;;;;;;;;;128.30;2252.80;;;;;;6216211;23;19904;-95
2022/03/10 02:51:51;;;;;;;;;;;128.30;2252.80;;;;;;6216019;23;19915;-95
2022/03/10 02:54:17;;;;;;;;;;;128.20;2252.80;;;;;;6216305;23;20345;-94
2022/03/10 02:56:43;;;;;;;;;;;128.20;2252.80;;;;;;6215980;23;19904;-96
2022/03/10 02:59:10;;;;;;;;;;;128.10;2252.80;;;;;;6216342;23;19908;-95
2022/03/10 03:01:36;;;;;;;;;;;128.10;2252.80;;;;;;6216379;23;19900;-95
2022/03/10 03:04:02;;;;;;;;;;;128.20;2252.80;;;;;;6216247;23;19946;-94
2022/03/10 03:06:27;;;;;;;;;;;128.20;2252.80;;;;;;6216346;23;19907;-95
2022/03/10 03:08:53;;;;;;;;;;;128.10;2252.80;;;;;;6216197;23;19904;-96
2022/03/10 03:11:19;;;;;;;;;;;128.10;2252.80;;;;;;6216002;23;20002;-94
2022/03/10 03:13:44;;;;;;;;;;;128.10;2252.80;;;;;;6216102;23;19906;-94
2022/03/10 03:16:10;;;;;;;;;;;128.10;2252.80;;;;;;6215924;23;19900;-93
2022/03/10 03:18:36;;;;;;;;;;;128.10;2252.80;;;;;;6216091;23;19958;-93
2022/03/10 03:21:01;;;;;;;;;;;128.10;2252.80;;;;;;6216092;23;20328;-95
2022/03/10 03:23:27;;;;;;;;;;;128.10;2252.80;;;;;;6215952;23;19915;-94
2022/03/10 03:25:53;;;;;;;;;;;128.10;2252.80;;;;;;6216084;23;19982;-95
2022/03/10 03:28:21;;;;;;;;;;;128.10;2252.80;;;;;;6218035;23;19899;-95
2022/03/10 03:30:50;;;;;;;;;;;128.10;2252.80;;;;;;6218244;23;19900;-94
2022/03/10 03:33:16;;;;;;;;;;;128.00;2252.80;;;;;;6217915;23;20388;-94
2022/03/10 03:35:42;;;;;;;;;;;103.30;2227.20;;;;;;6218086;23;19936;-95
2022/03/10 03:38:08;;;;;;;;;;;128.00;2252.80;;;;;;6217989;23;19906;-94
2022/03/10 03:40:34;;;;;;;;;;;128.00;2252.80;;;;;;6218051;23;19900;-94
2022/03/10 03:43:00;;;;;;;;;;;103.30;2227.20;;;;;;6218050;23;19931;-96
2022/03/10 03:45:26;;;;;;;;;;;103.30;2227.20;;;;;;6218106;23;19900;-96
2022/03/10 03:47:53;;;;;;;;;;;103.30;2227.20;;;;;;6218113;23;19900;-94
2022/03/10 03:50:19;;;;;;;;;;;103.30;2227.20;;;;;;6217784;23;19923;-95
2022/03/10 03:52:44;;;;;;;;;;;128.00;2252.80;;;;;;6217723;23;19909;-96
2022/03/10 03:55:11;;;;;;;;;;;128.00;2252.80;;;;;;6217996;23;20034;-95
2022/03/10 03:57:36;;;;;;;;;;;128.00;2252.80;;;;;;6217578;23;19907;-96
2022/03/10 04:00:03;;;;;;;;;;;128.00;2252.80;;;;;;6217685;23;19970;-94
2022/03/10 04:02:30;;;;;;;;;;;103.30;2227.20;;;;;;6217820;23;19931;-95
2022/03/10 04:04:56;;;;;;;;;;;103.30;2227.20;;;;;;6217596;23;19986;-95
2022/03/10 04:07:22;;;;;;;;;;;103.30;2227.20;;;;;;6217778;23;19900;-96
2022/03/10 04:09:48;;;;;;;;;;;103.30;2227.20;;;;;;6217836;23;19915;-96
2022/03/10 04:12:14;;;;;;;;;;;103.30;2227.20;;;;;;6217913;23;20344;-95
2022/03/10 04:14:40;;;;;;;;;;;103.30;2227.20;;;;;;6217583;23;19958;-96
2022/03/10 04:17:06;;;;;;;;;;;103.20;2227.20;;;;;;6217437;23;20313;-96
2022/03/10 04:19:31;;;;;;;;;;;103.20;2227.20;;;;;;6217502;23;19906;-95
2022/03/10 04:21:57;;;;;;;;;;;103.20;2227.20;;;;;;6217568;23;19949;-96
2022/03/10 04:24:23;;;;;;;;;;;103.20;2227.20;;;;;;6217651;23;19903;-96
2022/03/10 04:26:49;;;;;;;;;;;103.20;2227.20;;;;;;6217532;23;20297;-96
2022/03/10 04:29:15;;;;;;;;;;;103.20;2227.20;;;;;;6217773;23;19900;-95
2022/03/10 04:31:42;;;;;;;;;;;103.20;2227.20;;;;;;6217399;23;19915;-94
2022/03/10 04:34:08;;;;;;;;;;;103.20;2227.20;;;;;;6217786;23;19899;-96
2022/03/10 04:36:33;;;;;;;;;;;103.20;2227.20;;;;;;6219135;23;20336;-96
2022/03/10 04:38:59;;;;;;;;;;;103.10;2227.20;;;;;;6219933;23;19900;-95
2022/03/10 04:41:25;;;;;;;;;;;103.10;2227.20;;;;;;6218390;23;19985;-96
2022/03/10 04:43:50;;;;;;;;;;;103.10;2227.20;;;;;;6220525;23;20325;-96
2022/03/10 04:46:16;;;;;;;;;;;103.10;2227.20;;;;;;6221584;23;19931;-95
2022/03/10 04:48:42;;;;;;;;;;;103.10;2227.20;;;;;;6222612;23;19947;-95
2022/03/10 04:51:08;;;;;;;;;;;103.10;2227.20;;;;;;6217448;23;20355;-94
2022/03/10 04:53:55;;;;;;;;;;;103.10;2227.20;;;;;;6218717;23;19904;-96
2022/03/10 04:56:21;;;;;;;;;;;103.00;2227.20;;;;;;6223352;23;19900;-96
2022/03/10 04:58:47;;;;;;;;;;;103.00;2227.20;;;;;;6217330;23;19918;-94
2022/03/10 05:01:13;;;;;;;;;;;103.00;2227.20;;;;;;6196902;23;19906;-96
2022/03/10 05:03:39;;;;;;;;;;;103.00;2227.20;;;;;;6221035;23;19907;-96
2022/03/10 05:06:05;;;;;;;;;;;102.90;2227.20;;;;;;6194934;23;19900;-95
2022/03/10 05:08:31;;;;;;;;;;;103.00;2227.20;;;;;;6217733;23;19935;-94
2022/03/10 05:10:57;;;;;;;;;;;102.80;2227.20;;;;;;6218431;23;19904;-95
2022/03/10 05:13:23;;;;;;;;;;;102.80;2227.20;;;;;;6217782;23;19904;-95
2022/03/10 05:15:49;;;;;;;;;;;102.80;2227.20;;;;;;6218733;23;20208;-94
2022/03/10 05:18:15;;;;;;;;;;;102.80;2227.20;;;;;;6218465;23;20214;-94
2022/03/10 05:20:40;;;;;;;;;;;102.80;2227.20;;;;;;6219139;23;19907;-95
2022/03/10 05:23:06;;;;;;;;;;;102.80;2227.20;;;;;;6216947;23;19900;-93
2022/03/10 05:25:33;;;;;;;;;;;102.50;2227.20;;;;;;6216934;23;19899;-94
2022/03/10 05:27:59;;;;;;;;;;;102.80;2227.20;;;;;;6217004;23;19946;-95
2022/03/10 05:30:25;;;;;;;;;;;102.80;2227.20;;;;;;6216821;23;20302;-94
2022/03/10 05:32:51;;;;;;;;;;;102.70;2227.20;;;;;;6217172;23;19908;-95
2022/03/10 05:35:18;;;;;;;;;;;102.70;2227.20;;;;;;6217798;23;19910;-95
2022/03/10 05:37:45;;;;;;;;;;;102.70;2227.20;;;;;;6217116;23;19904;-95
2022/03/10 05:40:12;;;;;;;;;;;102.70;2227.20;;;;;;6218744;23;19903;-95
2022/03/10 05:42:43;;;;;;;;;;;102.70;2227.20;;;;;;6223386;23;19899;-96
2022/03/10 05:45:12;;;;;;;;;;;102.60;2227.20;;;;;;6220906;23;19948;-95
2022/03/10 05:47:43;;;;;;;;;;;102.60;2227.20;;;;;;6222547;23;19900;-96
2022/03/10 05:50:10;;;;;;;;;;;102.60;2227.20;;;;;;6221306;23;19900;-95
2022/03/10 05:52:41;;;;;;;;;;;102.60;2227.20;;;;;;6217725;23;19911;-96
2022/03/10 05:55:07;;;;;;;;;;;102.60;2227.20;;;;;;6219317;23;20290;-96
2022/03/10 05:57:33;;;;;;;;;;;102.60;2227.20;;;;;;6217716;23;19912;-96
2022/03/10 05:59:59;;;;;;;;;;;102.60;2227.20;;;;;;6191977;23;19955;-95
2022/03/10 06:02:25;;;;;;;;;;;102.60;2227.20;;;;;;6216765;23;20336;-95
2022/03/10 06:05:02;;;;;;;;;;;102.60;2227.20;;;;;;6218540;23;19900;-94
2022/03/10 06:07:29;;;;;;;;;;;102.60;2227.20;;;;;;6222305;23;19900;-96
2022/03/10 06:09:57;;;;;;;;;;;102.50;2176.00;;;;;;6222919;23;19900;-96
2022/03/10 06:12:27;;;;;;;;;;;102.60;2176.00;;;;;;6219182;23;19907;-95
2022/03/10 06:14:54;;;;;;;;;;;102.50;2124.80;;;;;;6219357;23;19917;-95
2022/03/10 06:17:20;;;;;;;;;;;102.50;2150.40;;;;;;6220474;23;19900;-95
2022/03/10 06:19:46;;;;;;;;;;;102.60;2124.80;;;;;;6220428;23;19961;-95
2022/03/10 06:22:16;;;;;;;;;;;102.50;2124.80;;;;;;6219453;23;20313;-94
2022/03/10 06:24:42;;;;;;;;;;;102.50;2124.80;;;;;;6220129;23;19900;-95
2022/03/10 06:27:12;;;;;;;;;;;77.50;2124.80;;;;;;6218739;23;19900;-94
2022/03/10 06:29:39;;;;;;;;;;;102.50;2099.20;;;;;;6219737;23;19900;-95
2022/03/10 06:32:06;;;;;;;;;;;102.70;2099.20;;;;;;6218112;23;19970;-94
2022/03/10 06:34:32;;;;;;;;;;;102.80;2099.20;;;;;;6219221;23;19900;-96
2022/03/10 06:36:58;;;;;;;;;;;102.90;2048.00;;;;;;6219998;23;19919;-95
2022/03/10 06:39:24;;;;;;;;;;;103.00;1996.80;;;;;;6218743;23;19904;-96
2022/03/10 06:41:49;;;;;;;;;;;103.00;1996.80;;;;;;6218579;23;19907;-96
2022/03/10 06:44:15;;;;;;;;;;;103.10;1945.60;;;;;;6220079;23;19954;-96
2022/03/10 06:46:41;;;;;;;;;;;103.10;1920.00;;;;;;6217222;23;19949;-94
2022/03/10 06:49:07;;;;;;;;;;;103.10;1920.00;;;;;;6217087;23;19983;-94
2022/03/10 06:51:33;;;;;;;;;;;103.30;1920.00;;;;;;6216879;23;19961;-94
2022/03/10 06:53:59;;;;;;;;;;;103.30;1894.40;;;;;;6217428;23;20288;-95
2022/03/10 06:56:25;;;;;;;;;;;103.30;1868.80;;;;;;6216541;23;20309;-94
2022/03/10 06:58:51;;;;;;;;;;;103.20;1868.80;;;;;;6216410;23;20367;-93
2022/03/10 07:01:18;;;;;;;;;;;103.30;1894.40;;;;;;6218306;23;19900;-96
2022/03/10 07:03:43;;;;;;;;;;;103.30;1843.20;;;;;;6216670;23;19911;-94
2022/03/10 07:06:09;;;;;;;;;;;103.30;1843.20;;;;;;6216413;23;19900;-95
2022/03/10 07:08:35;;;;;;;;;;;103.20;1817.60;;;;;;6216508;23;19900;-94
2022/03/10 07:11:00;;;;;;;;;;;103.30;1843.20;;;;;;6216513;23;19923;-95
2022/03/10 07:13:26;;;;;;;;;;;103.30;1843.20;;;;;;6216132;23;19900;-94
2022/03/10 07:15:52;;;;;;;;;;;103.20;1817.60;;;;;;6217148;23;19899;-95
2022/03/10 07:18:17;;;;;;;;;;;103.20;1817.60;;;;;;6216166;23;19961;-95
2022/03/10 07:20:45;;;;;;;;;;;103.20;1792.00;;;;;;6216338;23;19948;-96
2022/03/10 07:23:10;;;;;;;;;;;103.20;1766.40;;;;;;6215006;23;19906;-94
2022/03/10 07:25:37;;;;;;;;;;;103.30;1766.40;;;;;;6216628;23;19928;-94
2022/03/10 07:28:04;;;;;;;;;;;103.30;1740.80;;;;;;6216849;23;19903;-94
2022/03/10 07:30:30;;;;;;;;;;;103.30;1740.80;;;;;;6217282;23;19974;-94
2022/03/10 07:32:55;;;;;;;;;;;103.30;1740.80;;;;;;6216277;23;20348;-93
2022/03/10 07:35:21;;;;;;;;;;;103.30;1740.80;;;;;;6217031;23;20237;-92
2022/03/10 07:37:48;;;;;;;;;;;128.00;1740.80;;;;;;6216504;23;19958;-92
2022/03/10 07:40:13;;;;;;;;;;;128.00;1740.80;;;;;;6216090;23;19910;-94
2022/03/10 07:42:42;;;;;;;;;;;128.10;1689.60;;;;;;6216107;23;19900;-95
2022/03/10 07:45:09;;;;;;;;;;;128.20;1715.20;;;;;;6219653;23;20136;-94
2022/03/10 07:47:35;;;;;;;;;;;128.40;1689.60;;;;;;6219253;23;19900;-94
2022/03/10 07:50:00;;;;;;;;;;;128.40;1664.00;;;;;;6215700;23;20230;-92
2022/03/10 07:52:26;;;;;;;;;;;128.50;1664.00;;;;;;6217560;23;19914;-96
2022/03/10 07:54:52;;;;;;;;;;;;;;;;;;6219096;23;19900;-95
2022/03/10 07:57:18;;;;;;;;;;;153.70;1612.80;;;;;;6218810;23;19908;-94
2022/03/10 08:02:47;;;;;;;;;;;153.70;1612.80;;;;;;6218633;23;20237;-95
2022/03/10 08:05:13;;;;;;;;;;;153.90;1561.60;;;;;;6190879;23;20365;-95
2022/03/10 08:07:38;;;;;;;;;;;154.20;1510.40;;;;;;6190156;23;19900;-93
2022/03/10 08:10:05;;;;;;;;;;;154.30;1510.40;;;;;;6191681;23;19982;-95
2022/03/10 08:12:31;;;;;;;;;;;179.20;1484.80;;;;;;6190951;23;19908;-94
2022/03/10 08:14:58;;;;;;;;;;;;;;;;;;6220911;23;19979;-95
2022/03/10 08:17:25;;;;;;;;;;;179.80;1382.40;;;;;;6217844;23;20218;-95
2022/03/10 08:19:52;;;;;;;;;;;179.80;1382.40;;;;;;6191943;23;19899;-94
2022/03/10 08:22:18;;;;;;;;;;;;;;;;;;6191823;23;19899;-93
2022/03/10 08:24:44;;;;;;;;;;;205.00;1331.20;;;;;;6217970;23;20004;-93
2022/03/10 08:27:10;;;;;;;;;;;205.50;1305.60;;;;;;6192553;23;19899;-92
2022/03/10 08:29:36;;;;;;;;;;;205.70;1280.00;;;;;;6192334;23;19978;-93
2022/03/10 08:32:03;;;;;;;;;;;256.90;1177.60;;;;;;6192762;23;19915;-92
2022/03/10 08:34:29;;;;;;;;;;;;;;;;;;6217472;23;19900;-92
2022/03/10 08:36:56;;;;;;;;;;;384.20;921.60;;;;;;6217097;23;19923;-91
2022/03/10 08:39:21;;;;;;;;;;;410.30;870.40;;;;;;6217128;23;19986;-91
2022/03/10 08:41:49;;;;;;;;;;;;;;;;;;6217119;23;19907;-92
2022/03/10 08:44:15;;;;;;;;;;;461.30;819.20;;;;;;6217125;23;19955;-92
2022/03/10 08:46:41;;;;;;;;;;;;;;;;;;6217087;23;19986;-92
2022/03/10 08:49:07;;;;;;;;;;;512.20;691.20;;;;;;6217251;23;19907;-94
2022/03/10 08:51:36;;;;;;;;;;;;;;;;;;6217261;23;19904;-93
2022/03/10 08:54:02;;;;;;;;;;;537.80;716.80;;;;;;6217801;23;19978;-92
2022/03/10 08:56:28;;;;;;;;;;;563.20;716.80;;;;;;6217068;23;19907;-92
2022/03/10 08:58:54;;;;;;;;;;;538.50;691.20;;;;;;6216732;23;19912;-92
2022/03/10 09:01:20;;;;;;;;;;;563.70;691.20;;;;;;6215816;22;19916;-84
2022/03/10 09:03:46;;;;;;;;;;;588.90;716.80;;;;;;6191689;23;19906;-83
2022/03/10 09:06:13;;;;;;;;;;;589.60;640.00;;;;;;6191589;23;19899;-83
2022/03/10 09:08:39;;;;;;;;;;;614.60;640.00;;;;;;6191700;23;19900;-82
2022/03/10 09:11:06;;;;;;;;;;;615.30;614.40;;;;;;6191600;23;19950;-86
2022/03/10 09:13:32;;;;;;;;;;;640.00;588.80;;;;;;6217957;23;19900;-82
2022/03/10 09:15:58;;;;;;;;;;;640.60;563.20;;;;;;6191750;23;19906;-82
2022/03/10 09:18:23;;;;;;;;;;;640.90;563.20;;;;;;6217838;23;19950;-80
2022/03/10 09:20:49;;;;;;;;;;;666.10;563.20;;;;;;6191408;23;19907;-81
2022/03/10 09:23:14;;;;;;;;;;;691.20;563.20;;;;;;6190818;23;19900;-82
2022/03/10 09:25:40;;;;;;;;;;;691.80;537.60;;;;;;6217418;23;19983;-83
2022/03/10 09:28:07;;;;;;;;;;;;;;;;;;6191341;23;19900;-82
2022/03/10 09:30:33;;;;;;;;;;;716.90;640.00;;;;;;6191230;23;19978;-85
2022/03/10 09:32:58;;;;;;;;;;;717.40;563.20;;;;;;6217530;23;19993;-82
2022/03/10 09:35:25;;;;;;;;;;;742.80;537.60;;;;;;6191238;23;19983;-82
2022/03/10 09:37:52;;;;;;;;;;;743.00;512.00;;;;;;6217510;23;20340;-83
2022/03/10 09:40:18;;;;;;;;;;;743.10;512.00;;;;;;6189527;23;20233;-83
2022/03/10 09:42:45;;;;;;;;;;;743.10;512.00;;;;;;6215002;23;19970;-80
2022/03/10 09:45:11;;;;;;;;;;;743.20;512.00;;;;;;6190850;23;19907;-82
2022/03/10 09:47:38;;;;;;;;;;;768.20;486.40;;;;;;6191250;23;19900;-81
2022/03/10 09:50:05;;;;;;;;;;;768.60;486.40;;;;;;6191114;23;19904;-83
2022/03/10 09:52:31;;;;;;;;;;;768.70;486.40;;;;;;6217308;23;19930;-83
2022/03/10 09:54:58;;;;;;;;;;;793.60;512.00;;;;;;6217176;23;19900;-82
2022/03/10 09:57:25;;;;;;;;;;;794.00;486.40;;;;;;6190627;23;19904;-82
2022/03/10 09:59:51;;;;;;;;;;;794.00;486.40;;;;;;6217824;23;19907;-82
2022/03/10 10:02:18;;;;;;;;;;;819.30;460.80;;;;;;6190778;23;19923;-81
2022/03/10 10:04:44;;;;;;;;;;;819.20;460.80;;;;;;6217427;23;19904;-82
2022/03/10 10:07:10;;;;;;;;;;;819.60;460.80;;;;;;6190952;23;19903;-82
2022/03/10 10:09:54;;;;;;;;;;;819.90;435.20;;;;;;6217533;23;19899;-82
2022/03/10 10:12:24;;;;;;;;;;;845.30;460.80;;;;;;6190828;23;19912;-83
2022/03/10 10:14:50;;;;;;;;;;;871.20;409.60;;;;;;6190837;23;20232;-82
2022/03/10 10:17:16;;;;;;;;;;;870.60;409.60;;;;;;6190951;23;20301;-83
2022/03/10 10:19:42;;;;;;;;;;;871.00;435.20;;;;;;6190729;23;19950;-82
2022/03/10 10:22:15;;;;;;;;;;;896.00;435.20;;;;;;6217031;23;19908;-83
2022/03/10 10:24:50;;;;;;;;;;;871.20;435.20;;;;;;6190715;23;19900;-82
2022/03/10 10:27:21;;;;;;;;;;;871.30;384.00;;;;;;6190824;23;19900;-83
2022/03/10 10:29:51;;;;;;;;;;;896.10;384.00;;;;;;6190539;23;19904;-83
2022/03/10 10:32:23;;;;;;;;;;;871.30;409.60;;;;;;6190895;23;19900;-83
2022/03/10 10:35:03;;;;;;;;;;;896.00;409.60;;;;;;6190317;23;19924;-84
2022/03/10 10:37:29;;;;;;;;;;;820.00;537.60;;;;;;6190789;23;19935;-84
2022/03/10 10:39:56;;;;;;;;;;;692.00;486.40;;;;;;6190782;23;19899;-84
2022/03/10 10:42:33;;;;;;;;;;;615.30;563.20;;;;;;6190826;23;19912;-83
2022/03/10 10:44:59;;;;;;;;;;;563.60;640.00;;;;;;6217552;23;20327;-83
2022/03/10 10:47:28;;;;;;;;;;;487.10;691.20;;;;;;6217116;23;19906;-82
2022/03/10 10:49:58;;;;;;;;;;;461.40;742.40;;;;;;6189718;23;19911;-82
2022/03/10 10:52:24;;;;;;;;;;;436.00;742.40;;;;;;6190350;23;20255;-83
2022/03/10 10:55:02;;;;;;;;;;;435.20;742.40;;;;;;6190643;23;19904;-83
2022/03/10 10:57:33;;;;;;;;;;;410.10;819.20;;;;;;6216612;23;19899;-83
2022/03/10 11:00:05;;;;;;;;;;;409.80;819.20;;;;;;6190545;23;19907;-83
2022/03/10 11:02:31;;;;;;;;;;;;;;;;;;6216622;23;19990;-82
2022/03/10 11:04:58;;;;;;;;;;;384.40;844.80;;;;;;6190517;23;19900;-83
2022/03/10 11:07:24;;;;;;;;;;;384.20;870.40;;;;;;6190614;23;19904;-83
2022/03/10 11:09:51;;;;;;;;;;;384.20;844.80;;;;;;6216921;23;19900;-86
2022/03/10 11:12:18;;;;;;;;;;;384.30;870.40;;;;;;6190323;23;19926;-88
2022/03/10 11:14:44;;;;;;;;;;;384.20;870.40;;;;;;6216577;23;20041;-86
2022/03/10 11:17:12;;;;;;;;;;;359.10;844.80;;;;;;6216076;23;19907;-86
2022/03/10 11:19:38;;;;;;;;;;;;;;;;;;6216314;23;19906;-82
2022/03/10 11:22:04;;;;;;;;;;;;;;;;;;6190103;23;19908;-85
2022/03/10 11:24:30;;;;;;;;;;;;;;;;;;6190089;23;20314;-85
2022/03/10 11:26:56;;;;;;;;;;;;;;;;;;6190237;23;19900;-85
2022/03/10 11:29:23;;;;;;;;;;;;;;;;;;6190297;23;19950;-85
2022/03/10 11:31:49;;;;;;;;;;;;;;;;;;6190652;23;19899;-85
2022/03/10 11:34:15;;;;;;;;;;;;;;;;;;6190454;23;19904;-84
2022/03/10 11:36:40;;;;;;;;;;;;;;;;;;6217106;23;19932;-84
2022/03/10 11:39:06;;;;;;;;;;;;;;;;;;6190628;23;19946;-84
2022/03/10 11:41:32;;;;;;;;;;;;;;;;;;6217131;23;19943;-85
2022/03/10 11:43:58;;;;;;;;;;;;;;;;;;6190004;23;19911;-85
2022/03/10 11:46:25;;;;;;;;;;;;;;;;;;6216521;23;19904;-85
2022/03/10 11:48:50;;;;;;;;;;;;;;;;;;6191596;23;19958;-85
2022/03/10 11:51:17;;;;;;;;;;;;;;;;;;6192326;23;19906;-85
2022/03/10 11:53:43;;;;;;;;;;;;;;;;;;6192195;23;19900;-87
2022/03/10 11:56:09;;;;;;;;;;;;;;;;;;6218714;23;20281;-85
2022/03/10 11:58:35;;;;;;;;;;;;;;;;;;6192090;23;19911;-88
2022/03/10 12:01:01;;;;;;;;;;;;;;;;;;6182233;23;19908;-86
2022/03/10 12:03:27;;;;;;;;;;;;;;;;;;6161265;23;19916;-87
2022/03/10 12:05:55;;;;;;;;;;;;;;;;;;6160234;23;19908;-84
2022/03/10 12:08:21;;;;;;;;;;;;;;;;;;6160326;23;19904;-87
2022/03/10 12:10:50;;;;;;;;;;;;;;;;;;6161296;23;19900;-86
2022/03/10 12:13:16;;;;;;;;;;;;;;;;;;6161555;23;19947;-86
2022/03/10 12:15:43;;;;;;;;;;;;;;;;;;6162043;23;20303;-92
2022/03/10 12:18:09;;;;;;;;;;;;;;;;;;6162276;23;19904;-89
2022/03/10 12:20:35;;;;;;;;;;;;;;;;;;6161798;23;19920;-86
2022/03/10 12:23:01;;;;;;;;;;;;;;;;;;6161930;23;19908;-87
2022/03/10 12:25:27;;;;;;;;;;;;;;;;;;6161858;23;19900;-86
2022/03/10 12:27:53;;;;;;;;;;;;;;;;;;6161854;23;20233;-85
2022/03/10 12:30:19;;;;;;;;;;;;;;;;;;6187938;23;19946;-86
2022/03/10 12:32:45;;;;;;;;;;;;;;;;;;6161122;23;19900;-84
2022/03/10 12:35:11;;;;;;;;;;;384.90;768.00;;;;;;6188075;23;19900;-85
2022/03/10 12:37:37;;;;;;;;;;;460.80;716.80;;;;;;6162236;23;20198;-85
2022/03/10 12:40:02;;;;;;;;;;;512.10;640.00;;;;;;6162025;23;19944;-84
2022/03/10 12:42:32;;;;;;;;;;;538.50;614.40;;;;;;6161938;23;19908;-82
2022/03/10 12:44:58;;;;;;;;;;;692.00;460.80;;;;;;6161737;23;19900;-82
2022/03/10 12:47:26;;;;;;;;;;;794.50;486.40;;;;;;6161713;23;19904;-83
2022/03/10 12:49:53;;;;;;;;;;;896.60;358.40;;;;;;6161655;23;19901;-81
2022/03/10 12:52:25;;;;;;;;;;;845.50;384.00;;;;;;6161881;23;20333;-82
2022/03/10 12:54:52;;;;;;;;;;;819.70;384.00;;;;;;6187701;23;19910;-81
2022/03/10 12:57:17;;;;;;;;;;;819.90;384.00;;;;;;6161025;23;20328;-83
2022/03/10 12:59:43;;;;;;;;;;;794.10;409.60;;;;;;6187428;23;19911;-81
2022/03/10 13:02:19;;;;;;;;;;;743.10;435.20;;;;;;6185357;23;19912;-91
2022/03/10 13:04:55;;;;;;;;;;;793.60;435.20;;;;;;6191464;23;19903;-80
2022/03/10 13:07:25;;;;;;;;;;;717.60;435.20;;;;;;6217904;23;19900;-83
2022/03/10 13:09:51;;;;;;;;;;;742.40;435.20;;;;;;6217649;23;20327;-80
2022/03/10 13:12:30;;;;;;;;;;;768.60;384.00;;;;;;6191007;23;19911;-81
2022/03/10 13:14:57;;;;;;;;;;;819.50;384.00;;;;;;6190910;23;19908;-82
2022/03/10 13:17:33;;;;;;;;;;;819.90;384.00;;;;;;6217455;23;19907;-81
2022/03/10 13:19:58;;;;;;;;;;;845.50;384.00;;;;;;6217697;23;19907;-82
2022/03/10 13:22:24;;;;;;;;;;;845.60;358.40;;;;;;6217639;23;19912;-81
2022/03/10 13:24:52;;;;;;;;;;;870.40;332.80;;;;;;6191344;23;19906;-81
2022/03/10 13:27:19;;;;;;;;;;;947.30;307.20;;;;;;6190790;23;19979;-80
2022/03/10 13:29:45;;;;;;;;;;;947.70;281.60;;;;;;6190935;23;19946;-80
2022/03/10 13:32:11;;;;;;;;;;;1024.50;332.80;;;;;;6191332;23;19974;-81
2022/03/10 13:34:37;;;;;;;;;;;1050.00;358.40;;;;;;6191094;23;19915;-81
2022/03/10 13:37:03;;;;;;;;;;;1075.50;358.40;;;;;;6189438;23;19899;-82
2022/03/10 13:39:30;;;;;;;;;;;1076.00;358.40;;;;;;6217310;23;19900;-81
2022/03/10 13:41:56;;;;;;;;;;;1101.30;384.00;;;;;;6217247;23;19987;-79
2022/03/10 13:44:21;;;;;;;;;;;1126.40;409.60;;;;;;6190769;23;19946;-80
2022/03/10 13:46:47;;;;;;;;;;;1126.50;409.60;;;;;;6217250;23;19903;-81
2022/03/10 13:49:20;;;;;;;;;;;1152.10;409.60;;;;;;6190769;23;20302;-80
2022/03/10 13:51:46;;;;;;;;;;;1127.20;409.60;;;;;;6217042;23;19900;-80
2022/03/10 13:54:13;;;;;;;;;;;1127.20;409.60;;;;;;6216711;23;19907;-82
2022/03/10 13:56:43;;;;;;;;;;;1126.70;409.60;;;;;;6190230;23;19900;-78
2022/03/10 13:59:09;;;;;;;;;;;1126.80;409.60;;;;;;6190859;23;19900;-81
2022/03/10 14:01:36;;;;;;;;;;;1126.80;409.60;;;;;;6173220;23;19916;-81
2022/03/10 14:04:13;;;;;;;;;;;1126.50;409.60;;;;;;6187002;23;19911;-81
2022/03/10 14:06:42;;;;;;;;;;;1126.90;409.60;;;;;;6160463;23;19931;-81
2022/03/10 14:09:15;;;;;;;;;;;1126.40;409.60;;;;;;6186866;23;19907;-80
2022/03/10 14:11:41;;;;;;;;;;;1126.50;409.60;;;;;;6160665;23;19986;-81
2022/03/10 14:14:06;;;;;;;;;;;1101.50;384.00;;;;;;6185079;23;19900;-81
2022/03/10 14:16:32;;;;;;;;;;;1101.00;384.00;;;;;;6159962;23;19900;-80
2022/03/10 14:18:57;;;;;;;;;;;1101.30;384.00;;;;;;6160151;23;19947;-80
2022/03/10 14:21:23;;;;;;;;;;;1100.80;384.00;;;;;;6160638;23;19900;-80
2022/03/10 14:23:56;;;;;;;;;;;1050.50;358.40;;;;;;6160330;23;19905;-81
2022/03/10 14:26:22;;;;;;;;;;;871.20;281.60;;;;;;6185529;23;19900;-80
2022/03/10 14:28:49;;;;;;;;;;;742.50;358.40;;;;;;6160449;23;19923;-80
2022/03/10 14:31:19;;;;;;;;;;;640.10;384.00;;;;;;6186673;23;19910;-79
2022/03/10 14:33:45;;;;;;;;;;;564.10;460.80;;;;;;6160723;23;19927;-81
2022/03/10 14:36:12;;;;;;;;;;;537.60;512.00;;;;;;6160540;23;20326;-81
2022/03/10 14:38:38;;;;;;;;;;;486.90;563.20;;;;;;6186799;23;19900;-80
2022/03/10 14:41:07;;;;;;;;;;;461.20;588.80;;;;;;6186741;23;19908;-81
2022/03/10 14:43:34;;;;;;;;;;;435.60;588.80;;;;;;6160565;23;19908;-81
2022/03/10 14:46:00;;;;;;;;;;;435.30;614.40;;;;;;6160605;23;19951;-80
2022/03/10 14:48:26;;;;;;;;;;;409.90;665.60;;;;;;6186996;23;19904;-81
2022/03/10 14:50:52;;;;;;;;;;;384.60;614.40;;;;;;6160306;23;19911;-82
2022/03/10 14:53:18;;;;;;;;;;;384.00;614.40;;;;;;6160428;23;19966;-81
2022/03/10 14:55:44;;;;;;;;;;;;;;;;;;6186913;23;20203;-82
2022/03/10 14:58:09;;;;;;;;;;;359.00;665.60;;;;;;6160586;23;19986;-82
2022/03/10 15:00:35;;;;;;;;;;;358.80;691.20;;;;;;6164861;23;19950;-82
2022/03/10 15:03:01;;;;;;;;;;;358.60;716.80;;;;;;6217105;23;19986;-82
2022/03/10 15:05:27;;;;;;;;;;;;;;;;;;6190141;23;19916;-82
2022/03/10 15:07:52;;;;;;;;;;;333.40;691.20;;;;;;6190722;23;19900;-82
2022/03/10 15:10:18;;;;;;;;;;;333.30;716.80;;;;;;6190565;23;20203;-82